Time;durP1;ratioP1;P1;durP2;ratioP2;P2;SDS_P1;SDS_P2;PMS_P1;PMS_P2;Temp;Humidity;BMP_temperature;BMP_pressure;BME280_temperature;BME280_humidity;BME280_pressure;Samples;Min_cycle;Max_cycle;Signal;HPM_P1;HPM_P2
2022/05/07 00:01:44;;;;;;;;;;;;;;;15.04;51.48;98550.28;4975729;28;19934;-57
2022/05/07 00:04:13;;;;;;;;;;;;;;;15.03;51.94;98545.13;4977151;28;20170;-57
2022/05/07 00:07:05;;;;;;;;;;;;;;;15.01;51.95;98545.44;4978624;28;19926;-58
2022/05/07 00:09:33;;;;;;;;;;;;;;;14.95;52.57;98546.75;4980066;28;20329;-57
2022/05/07 00:12:01;;;;;;;;;;;;;;;14.91;52.34;98545.78;4973854;28;20343;-58
2022/05/07 00:14:28;;;;;;;;;;;;;;;14.87;52.88;98539.38;4977542;28;19926;-58
2022/05/07 00:19:43;;;;;;;;;;;;;;;14.78;52.90;98536.63;4977548;28;19933;-58
2022/05/07 00:22:11;;;;;;;;;;;;;;;14.69;53.00;98544.03;4977039;28;20002;-57
2022/05/07 00:24:39;;;;;;;;;;;;;;;14.66;52.61;98540.03;4981426;28;19962;-58
2022/05/07 00:27:07;;;;;;;;;;;;;;;14.68;52.67;98532.28;4966459;28;20009;-58
2022/05/07 00:29:35;;;;;;;;;;;;;;;14.51;53.61;98537.78;4977964;28;19934;-58
2022/05/07 00:32:03;;;;;;;;;;;;;;;14.58;53.47;98532.59;4980458;28;19934;-58
2022/05/07 00:34:31;;;;;;;;;;;;;;;14.46;53.19;98535.16;4983217;28;19926;-58
2022/05/07 00:37:00;;;;;;;;;;;;;;;14.34;53.49;98538.53;4978873;28;19977;-58
2022/05/07 00:39:30;;;;;;;;;;;;;;;14.38;53.79;98535.94;4976757;28;19926;-58
2022/05/07 00:42:02;;;;;;;;;;;;;;;14.29;53.68;98530.50;4981455;28;19973;-58
2022/05/07 00:44:30;;;;;;;;;;;;;;;14.26;53.69;98530.31;4991736;28;19930;-58
2022/05/07 00:47:01;;;;;;;;;;;;;;;14.24;53.79;98527.13;4980428;28;19926;-58
2022/05/07 00:49:28;;;;;;;;;;;;;;;14.05;53.66;98525.47;4978511;28;19926;-57
2022/05/07 00:51:55;;;;;;;;;;;;;;;13.84;53.43;98535.38;4978384;28;19961;-57
2022/05/07 00:54:24;;;;;;;;;;;;;;;13.97;54.36;98518.06;4976471;28;19926;-56
2022/05/07 00:56:54;;;;;;;;;;;;;;;14.01;54.23;98516.31;4985777;28;19925;-57
2022/05/07 00:59:21;;;;;;;;;;;;;;;14.12;54.09;98517.63;4978657;28;20035;-57
2022/05/07 01:01:49;;;;;;;;;;;;;;;14.16;53.86;98515.84;4977030;28;19937;-57
2022/05/07 01:04:23;;;;;;;;;;;;;;;14.21;53.65;98511.34;4976749;28;19934;-57
2022/05/07 01:06:55;;;;;;;;;;;;;;;14.21;53.84;98514.06;4984037;28;20045;-57
2022/05/07 01:09:25;;;;;;;;;;;;;;;14.10;54.41;98514.38;4984580;28;19925;-56
2022/05/07 01:11:53;;;;;;;;;;;;;;;14.14;54.81;98507.16;4975714;28;20016;-56
2022/05/07 01:14:21;;;;;;;;;;;;;;;14.08;54.97;98513.91;4984105;28;20275;-56
2022/05/07 01:16:50;;;;;;;;;;;;;;;14.11;54.90;98516.03;4974855;28;19930;-57
2022/05/07 01:19:18;;;;;;;;;;;;;;;14.04;55.11;98506.66;4977816;28;19933;-58
2022/05/07 01:21:48;;;;;;;;;;;;;;;13.98;55.83;98503.28;4977877;28;20382;-56
2022/05/07 01:24:16;;;;;;;;;;;;;;;13.99;55.82;98506.81;4975834;28;19932;-56
2022/05/07 01:26:44;;;;;;;;;;;;;;;13.88;55.89;98500.84;4980091;28;19953;-57
2022/05/07 01:29:13;;;;;;;;;;;;;;;13.85;56.33;98499.59;4980447;28;20358;-57
2022/05/07 01:31:44;;;;;;;;;;;;;;;13.63;56.70;98500.50;4977179;28;19930;-57
2022/05/07 01:34:12;;;;;;;;;;;;;;;13.53;56.61;98500.78;4982480;28;19930;-57
2022/05/07 01:36:46;;;;;;;;;;;;;;;13.47;56.74;98501.22;4963074;28;19930;-57
2022/05/07 01:39:17;;;;;;;;;;;;;;;13.44;56.83;98499.94;4983919;28;19937;-56
2022/05/07 01:41:46;;;;;;;;;;;;;;;13.56;56.51;98508.31;4987055;28;19930;-57
2022/05/07 01:44:14;;;;;;;;;;;;;;;13.47;56.64;98501.22;4977222;28;19977;-57
2022/05/07 01:49:32;;;;;;;;;;;;;;;13.26;57.33;98506.41;4977254;28;19933;-57
2022/05/07 01:52:02;;;;;;;;;;;;;;;13.18;57.72;98502.53;4979482;28;20461;-56
2022/05/07 01:54:33;;;;;;;;;;;;;;;13.18;57.95;98499.00;4975823;28;19926;-57
2022/05/07 01:57:02;;;;;;;;;;;;;;;13.25;57.78;98502.91;4976710;28;19981;-57
2022/05/07 01:59:30;;;;;;;;;;;;;;;13.17;58.11;98508.28;4989075;28;19933;-57
2022/05/07 02:02:03;;;;;;;;;;;;;;;13.37;57.59;98505.06;4979897;28;19941;-57
2022/05/07 02:04:32;;;;;;;;;;;;;;;13.18;57.59;98499.78;4977066;28;19930;-56
2022/05/07 02:07:04;;;;;;;;;;;;;;;13.26;57.99;98498.25;4975120;28;19930;-57
2022/05/07 02:09:33;;;;;;;;;;;;;;;13.34;57.68;98492.81;4973312;28;20361;-57
2022/05/07 02:12:01;;;;;;;;;;;;;;;13.36;57.30;98495.22;4971014;28;19926;-55
2022/05/07 02:14:33;;;;;;;;;;;;;;;13.40;57.03;98493.50;4974287;28;19930;-57
2022/05/07 02:17:04;;;;;;;;;;;;;;;13.33;57.48;98498.59;4983088;28;20017;-57
2022/05/07 02:19:32;;;;;;;;;;;;;;;13.29;57.54;98497.63;4981466;28;19938;-57
2022/05/07 02:22:00;;;;;;;;;;;;;;;13.34;57.23;98500.22;4975364;28;19934;-58
2022/05/07 02:24:29;;;;;;;;;;;;;;;13.33;57.26;98502.13;4979216;28;19933;-56
2022/05/07 02:26:59;;;;;;;;;;;;;;;13.29;56.32;98503.06;4981912;28;20390;-57
2022/05/07 02:29:27;;;;;;;;;;;;;;;13.16;57.10;98498.50;4980586;28;19930;-57
2022/05/07 02:32:05;;;;;;;;;;;;;;;13.03;57.48;98503.72;4976003;28;19927;-57
2022/05/07 02:34:42;;;;;;;;;;;;;;;13.10;56.96;98512.28;4970999;28;19930;-56
2022/05/07 02:37:19;;;;;;;;;;;;;;;13.01;57.24;98508.69;4973686;28;19969;-57
2022/05/07 02:39:53;;;;;;;;;;;;;;;12.88;57.40;98508.75;4980660;28;19941;-57
2022/05/07 02:42:36;;;;;;;;;;;;;;;12.81;57.10;98503.75;4972212;28;19984;-59
2022/05/07 02:45:10;;;;;;;;;;;;;;;12.87;56.75;98494.31;4978492;28;19976;-58
2022/05/07 02:47:40;;;;;;;;;;;;;;;12.70;57.41;98503.19;4980973;28;19930;-60
2022/05/07 02:50:09;;;;;;;;;;;;;;;12.78;57.28;98501.63;4983256;28;20333;-60
2022/05/07 02:52:39;;;;;;;;;;;;;;;12.79;57.33;98506.81;4979648;28;19949;-57
2022/05/07 02:55:09;;;;;;;;;;;;;;;12.73;57.36;98509.94;4975839;28;20286;-57
2022/05/07 02:57:40;;;;;;;;;;;;;;;12.67;57.43;98508.47;4972663;28;19973;-57
2022/05/07 03:00:10;;;;;;;;;;;;;;;12.55;57.58;98504.38;4982453;28;19934;-57
2022/05/07 03:02:38;;;;;;;;;;;;;;;12.52;57.74;98506.94;4976500;28;19961;-59
2022/05/07 03:05:07;;;;;;;;;;;;;;;12.48;57.85;98509.47;4978444;28;20363;-59
2022/05/07 03:07:35;;;;;;;;;;;;;;;12.38;58.10;98506.97;4976119;28;20008;-58
2022/05/07 03:10:35;;;;;;;;;;;;;;;12.41;57.95;98511.81;4979324;28;19948;-57
2022/05/07 03:13:04;;;;;;;;;;;;;;;12.29;58.43;98508.81;4978609;28;19926;-56
2022/05/07 03:15:32;;;;;;;;;;;;;;;12.29;58.17;98506.09;4976522;28;19941;-56
2022/05/07 03:18:04;;;;;;;;;;;;;;;12.10;58.95;98503.53;4973816;28;19930;-58
2022/05/07 03:20:40;;;;;;;;;;;;;;;12.07;59.24;98501.41;4976713;28;19962;-58
2022/05/07 03:23:11;;;;;;;;;;;;;;;11.91;59.79;98506.38;4985316;28;19927;-57
2022/05/07 03:25:39;;;;;;;;;;;;;;;11.75;60.26;98500.44;4985831;28;19980;-58
2022/05/07 03:28:09;;;;;;;;;;;;;;;11.51;61.08;98508.81;4977361;28;19926;-58
2022/05/07 03:31:02;;;;;;;;;;;;;;;11.84;59.98;98508.72;4981614;28;19949;-58
2022/05/07 03:33:32;;;;;;;;;;;;;;;11.91;59.52;98514.56;4975164;28;20663;-58
2022/05/07 03:36:00;;;;;;;;;;;;;;;11.86;59.71;98511.13;4975821;28;19925;-56
2022/05/07 03:38:28;;;;;;;;;;;;;;;11.78;59.83;98509.91;4975830;28;19930;-58
2022/05/07 03:41:04;;;;;;;;;;;;;;;11.86;59.49;98513.84;4987487;28;19926;-58
2022/05/07 03:44:03;;;;;;;;;;;;;;;11.89;59.52;98510.53;4986767;28;19926;-58
2022/05/07 03:46:33;;;;;;;;;;;;;;;11.91;59.27;98511.84;4977480;28;20451;-58
2022/05/07 03:49:02;;;;;;;;;;;;;;;11.86;59.27;98511.13;4980422;28;19991;-58
2022/05/07 03:53:29;;;;;;;;;;;;;;;11.84;59.35;98514.19;4983084;28;20343;-58
2022/05/07 03:54:23;;;;;;;;;;;;;;;11.53;60.07;98514.75;4980709;28;19965;-58
2022/05/07 03:56:52;;;;;;;;;;;;;;;11.38;60.74;98517.78;4986258;28;19937;-59
2022/05/07 03:59:25;;;;;;;;;;;;;;;11.33;61.02;98523.31;4984722;28;19930;-60
2022/05/07 04:01:56;;;;;;;;;;;;;;;11.58;60.41;98505.69;4982437;28;20318;-58
2022/05/07 04:04:33;;;;;;;;;;;;;;;11.72;60.03;98513.84;4979387;28;19980;-58
2022/05/07 04:07:08;;;;;;;;;;;;;;;11.78;59.75;98515.38;4978482;28;19930;-58
2022/05/07 04:09:37;;;;;;;;;;;;;;;11.81;59.72;98520.19;4983334;28;19926;-58
2022/05/07 04:12:08;;;;;;;;;;;;;;;11.92;59.63;98520.81;4977482;28;19936;-58
2022/05/07 04:14:40;;;;;;;;;;;;;;;12.00;59.18;98525.53;4969534;28;19930;-58
2022/05/07 04:17:10;;;;;;;;;;;;;;;12.04;59.06;98521.91;4981824;28;19937;-57
2022/05/07 04:19:37;;;;;;;;;;;;;;;12.13;58.93;98521.16;4976823;28;19934;-58
2022/05/07 04:22:06;;;;;;;;;;;;;;;12.11;58.67;98528.84;4983363;28;20371;-56
2022/05/07 04:24:43;;;;;;;;;;;;;;;12.01;59.34;98524.44;4986111;28;20033;-58
2022/05/07 04:27:11;;;;;;;;;;;;;;;11.97;59.48;98528.88;4982514;28;19933;-58
2022/05/07 04:29:41;;;;;;;;;;;;;;;11.95;59.39;98529.19;4976883;28;19926;-58
2022/05/07 04:32:19;;;;;;;;;;;;;;;12.03;59.22;98535.81;4969275;28;19956;-59
2022/05/07 04:34:52;;;;;;;;;;;;;;;12.07;59.22;98534.91;4985830;28;20301;-57
2022/05/07 04:37:21;;;;;;;;;;;;;;;11.63;60.47;98540.16;4986863;28;20025;-60
2022/05/07 04:39:49;;;;;;;;;;;;;;;11.96;59.34;98536.22;4965496;28;19933;-59
2022/05/07 04:42:17;;;;;;;;;;;;;;;12.01;59.11;98535.31;4984610;28;19930;-58
2022/05/07 04:44:50;;;;;;;;;;;;;;;12.01;59.02;98536.13;4977722;28;19992;-58
2022/05/07 04:47:27;;;;;;;;;;;;;;;11.73;59.94;98534.53;4979869;28;19984;-59
2022/05/07 04:49:55;;;;;;;;;;;;;;;11.82;59.89;98538.16;4979895;28;20032;-60
2022/05/07 04:52:31;;;;;;;;;;;;;;;11.84;59.73;98546.03;4982817;28;19926;-56
2022/05/07 04:55:00;;;;;;;;;;;;;;;11.99;59.52;98538.34;4980110;28;19926;-58
2022/05/07 04:57:34;;;;;;;;;;;;;;;11.98;59.35;98534.00;4985917;28;20080;-58
2022/05/07 05:00:05;;;;;;;;;;;;;;;12.15;59.07;98541.56;4983845;28;20231;-58
2022/05/07 05:02:57;;;;;;;;;;;;;;;12.17;59.03;98544.78;4977670;28;19933;-57
2022/05/07 05:05:26;;;;;;;;;;;;;;;12.13;59.07;98546.50;4980905;28;19932;-58
2022/05/07 05:08:03;;;;;;;;;;;;;;;12.15;58.58;98540.75;4980337;28;19925;-58
2022/05/07 05:10:32;;;;;;;;;;;;;;;12.33;58.75;98553.41;4978932;28;19930;-58
2022/05/07 05:13:01;;;;;;;;;;;;;;;12.25;58.78;98552.22;4975654;28;19932;-58
2022/05/07 05:15:29;;;;;;;;;;;;;;;12.01;59.54;98547.00;4978805;28;19930;-58
2022/05/07 05:18:06;;;;;;;;;;;;;;;12.18;59.04;98548.28;4989727;28;20033;-59
2022/05/07 05:20:38;;;;;;;;;;;;;;;11.81;60.12;98555.56;4980216;28;20315;-59
2022/05/07 05:23:26;;;;;;;;;;;;;;;12.12;59.18;98547.59;4982270;28;20068;-59
2022/05/07 05:25:53;;;;;;;;;;;;;;;12.13;58.81;98551.94;4975947;28;19925;-59
2022/05/07 05:28:32;;;;;;;;;;;;;;;12.07;59.22;98558.59;4973129;28;20017;-59
2022/05/07 05:31:08;;;;;;;;;;;;;;;11.80;59.95;98565.66;4991497;28;20343;-58
2022/05/07 05:33:41;;;;;;;;;;;;;;;11.63;60.48;98565.47;4990952;28;19925;-58
2022/05/07 05:36:16;;;;;;;;;;;;;;;11.45;61.02;98572.63;4982085;28;19926;-58
2022/05/07 05:38:47;;;;;;;;;;;;;;;11.41;61.51;98570.78;4980111;28;19933;-58
2022/05/07 05:41:20;;;;;;;;;;;;;;;11.23;62.13;98575.97;4981924;28;19930;-59
2022/05/07 05:43:49;;;;;;;;;;;;;;;11.23;62.18;98575.97;4980379;28;20006;-58
2022/05/07 05:46:18;;;;;;;;;;;;;;;11.39;61.91;98579.22;4982125;28;19941;-58
2022/05/07 05:49:14;;;;;;;;;;;;;;;11.64;61.15;98577.97;4972785;28;19934;-59
2022/05/07 05:51:46;;;;;;;;;;;;;;;11.51;61.70;98586.94;4975268;28;19964;-59
2022/05/07 05:54:15;;;;;;;;;;;;;;;11.75;60.92;98584.81;4978942;28;19930;-60
2022/05/07 05:56:44;;;;;;;;;;;;;;;11.88;60.92;98585.97;4982429;28;19926;-60
2022/05/07 05:59:12;;;;;;;;;;;;;;;12.20;59.64;98576.84;4972195;28;20020;-57
2022/05/07 06:01:51;;;;;;;;;;;;;;;12.37;59.48;98581.66;4977177;28;20377;-58
2022/05/07 06:04:25;;;;;;;;;;;;;;;12.28;59.08;98578.84;4983158;28;19953;-58
2022/05/07 06:06:58;;;;;;;;;;;;;;;12.13;59.73;98583.81;4983371;28;19926;-58
2022/05/07 06:09:35;;;;;;;;;;;;;;;11.97;59.93;98584.13;4974849;28;19965;-58
2022/05/07 06:12:14;;;;;;;;;;;;;;;12.02;60.31;98586.75;4974750;28;19969;-57
2022/05/07 06:14:43;;;;;;;;;;;;;;;12.28;59.36;98578.84;4981145;28;20538;-58
2022/05/07 06:17:11;;;;;;;;;;;;;;;12.22;59.58;98584.72;4987716;28;20716;-58
2022/05/07 06:19:44;;;;;;;;;;;;;;;12.45;59.32;98583.66;4976541;28;19980;-58
2022/05/07 06:22:14;;;;;;;;;;;;;;;12.64;58.59;98579.97;4976165;28;20810;-58
2022/05/07 06:27:35;;;;;;;;;;;;;;;12.61;58.25;98586.03;4972373;28;19930;-57
2022/05/07 06:30:14;;;;;;;;;;;;;;;12.76;57.76;98585.69;4978938;28;19926;-57
2022/05/07 06:32:50;;;;;;;;;;;;;;;12.92;57.56;98583.38;4981087;28;19957;-58
2022/05/07 06:35:19;;;;;;;;;;;;;;;13.09;56.58;98570.66;4979225;28;19953;-58
2022/05/07 06:38:01;;;;;;;;;;;;;;;13.42;56.14;98573.13;4980412;28;19934;-58
2022/05/07 06:40:29;;;;;;;;;;;;;;;13.49;55.45;98578.94;4973410;28;19988;-59
2022/05/07 06:42:57;;;;;;;;;;;;;;;13.71;54.61;98571.81;4979065;28;19934;-58
2022/05/07 06:45:32;;;;;;;;;;;;;;;13.81;55.12;98579.72;4977527;28;20220;-58
2022/05/07 06:48:00;;;;;;;;;;;;;;;13.95;54.33;98577.66;4975608;28;20457;-58
2022/05/07 06:50:28;;;;;;;;;;;;;;;13.99;53.33;98581.38;4976090;28;19934;-57
2022/05/07 06:52:58;;;;;;;;;;;;;;;14.08;53.10;98581.41;4971835;28;19930;-58
2022/05/07 06:55:29;;;;;;;;;;;;;;;14.33;52.70;98574.41;4978787;28;19926;-58
2022/05/07 06:57:58;;;;;;;;;;;;;;;14.41;52.54;98579.06;4973580;28;19933;-58
2022/05/07 07:00:46;;;;;;;;;;;;;;;14.31;53.10;98576.63;4970849;28;20390;-58
2022/05/07 07:03:14;;;;;;;;;;;;;;;14.52;52.34;98569.44;4972796;28;19933;-60
2022/05/07 07:05:43;;;;;;;;;;;;;;;14.73;52.58;98566.88;4976814;28;20301;-60
2022/05/07 07:08:13;;;;;;;;;;;;;;;15.04;51.55;98572.16;4972744;28;20263;-60
2022/05/07 07:10:42;;;;;;;;;;;;;;;14.94;51.17;98572.50;4975521;28;19926;-60
2022/05/07 07:13:11;;;;;;;;;;;;;;;15.16;51.63;98574.22;4978263;28;19932;-60
2022/05/07 07:15:40;;;;;;;;;;;;;;;15.30;50.80;98574.06;4977673;28;20363;-60
2022/05/07 07:18:32;;;;;;;;;;;;;;;15.38;50.69;98576.75;4972558;28;20299;-58
2022/05/07 07:21:00;;;;;;;;;;;;;;;15.54;50.71;98573.47;4973748;28;19977;-60
2022/05/07 07:23:28;;;;;;;;;;;;;;;15.51;50.49;98574.94;4973466;28;19926;-60
2022/05/07 07:25:58;;;;;;;;;;;;;;;15.62;50.45;98576.19;4979232;28;19926;-60
2022/05/07 07:28:26;;;;;;;;;;;;;;;15.67;50.23;98578.00;4978102;28;20098;-59
2022/05/07 07:30:55;;;;;;;;;;;;;;;15.51;50.08;98572.22;4975065;28;19926;-59
2022/05/07 07:33:23;;;;;;;;;;;;;;;15.66;50.42;98571.72;4969302;28;19961;-59
2022/05/07 07:35:51;;;;;;;;;;;;;;;15.62;50.79;98572.66;4978450;28;19933;-59
2022/05/07 07:38:24;;;;;;;;;;;;;;;15.62;50.81;98570.72;4971086;28;19956;-59
2022/05/07 07:40:51;;;;;;;;;;;;;;;15.90;49.99;98570.31;4976056;28;19934;-60
2022/05/07 07:43:21;;;;;;;;;;;;;;;16.05;50.29;98574.44;4974609;28;19973;-61
2022/05/07 07:48:34;;;;;;;;;;;;;;;16.24;50.04;98575.59;4970173;28;19937;-59
2022/05/07 07:51:02;;;;;;;;;;;;;;;16.41;50.20;98560.97;4976511;28;20438;-59
2022/05/07 07:53:33;;;;;;;;;;;;;;;16.48;49.88;98563.19;4974582;28;19926;-60
2022/05/07 07:56:01;;;;;;;;;;;;;;;16.57;49.47;98561.19;4973590;28;20013;-59
2022/05/07 07:58:30;;;;;;;;;;;;;;;16.55;49.60;98557.94;4973551;28;19930;-60
2022/05/07 08:00:58;;;;;;;;;;;;;;;16.66;49.92;98559.16;4975833;28;19925;-60
2022/05/07 08:03:26;;;;;;;;;;;;;;;16.74;49.29;98561.06;4971305;28;20311;-60
2022/05/07 08:05:54;;;;;;;;;;;;;;;16.69;49.59;98560.44;4971576;28;19932;-59
2022/05/07 08:13:55;;;;;;;;;;;;;;;16.98;49.00;98565.03;4979296;28;19934;-59
2022/05/07 08:16:24;;;;;;;;;;;;;;;17.06;48.88;98561.41;4979910;28;19980;-60
2022/05/07 08:18:52;;;;;;;;;;;;;;;17.07;49.00;98552.03;4980747;28;19962;-57
2022/05/07 08:21:20;;;;;;;;;;;;;;;17.19;48.95;98557.56;4978416;28;19942;-59
2022/05/07 08:23:49;;;;;;;;;;;;;;;17.08;48.88;98552.84;4974363;28;19937;-59
2022/05/07 08:26:17;;;;;;;;;;;;;;;17.23;47.65;98549.44;4973953;28;20334;-59
2022/05/07 08:28:46;;;;;;;;;;;;;;;17.25;47.78;98552.66;4978926;28;19980;-60
2022/05/07 08:31:21;;;;;;;;;;;;;;;17.39;47.35;98549.59;4978136;28;19933;-57
2022/05/07 08:33:49;;;;;;;;;;;;;;;17.43;47.04;98548.59;4977867;28;19973;-58
2022/05/07 08:36:17;;;;;;;;;;;;;;;17.51;46.54;98552.34;4978665;28;19941;-57
2022/05/07 08:38:45;;;;;;;;;;;;;;;17.48;46.75;98551.13;4978092;28;19930;-58
2022/05/07 08:41:14;;;;;;;;;;;;;;;17.65;46.15;98555.59;4982083;28;19969;-57
2022/05/07 08:43:46;;;;;;;;;;;;;;;17.76;46.24;98548.53;4978451;28;20240;-58
2022/05/07 08:49:57;;;;;;;;;;;;;;;18.03;46.10;98549.78;4975304;28;19930;-57
2022/05/07 08:52:26;;;;;;;;;;;;;;;18.01;45.53;98546.59;4979829;28;19962;-57
2022/05/07 08:54:57;;;;;;;;;;;;;;;18.15;45.73;98556.41;4978537;28;19961;-57
2022/05/07 08:57:29;;;;;;;;;;;;;;;18.30;45.13;98552.97;4978823;28;19930;-58
2022/05/07 08:59:58;;;;;;;;;;;;;;;18.65;43.39;98541.44;4975957;28;20024;-57
2022/05/07 09:02:28;;;;;;;;;;;;;;;18.86;42.97;98546.78;4969752;28;20398;-57
2022/05/07 09:04:58;;;;;;;;;;;;;;;18.94;43.27;98549.34;4979155;28;20021;-58
2022/05/07 09:07:26;;;;;;;;;;;;;;;19.06;43.08;98545.75;4977173;28;19933;-58
2022/05/07 09:09:54;;;;;;;;;;;;;;;19.04;42.00;98554.34;4976204;28;19972;-58
2022/05/07 09:12:24;;;;;;;;;;;;;;;19.24;41.13;98552.53;4975481;28;20025;-56
2022/05/07 09:14:52;;;;;;;;;;;;;;;19.24;40.86;98549.00;4977605;28;19930;-58
2022/05/07 09:17:20;;;;;;;;;;;;;;;19.09;41.14;98556.06;4973525;28;20017;-59
2022/05/07 09:19:48;;;;;;;;;;;;;;;19.05;41.36;98555.16;4976887;28;19926;-58
2022/05/07 09:22:17;;;;;;;;;;;;;;;19.13;40.93;98559.72;4976064;28;19930;-58
2022/05/07 09:24:53;;;;;;;;;;;;;;;19.10;40.32;98554.91;4979461;28;20023;-58
2022/05/07 09:27:21;;;;;;;;;;;;;;;19.00;40.06;98558.16;4974279;28;20012;-58
2022/05/07 09:29:58;;;;;;;;;;;;;;;18.92;40.44;98545.38;4980206;28;20411;-59
2022/05/07 09:32:34;;;;;;;;;;;;;;;18.86;41.17;98544.81;4979008;28;19926;-58
2022/05/07 09:37:54;;;;;;;;;;;;;;;18.88;40.82;98534.25;4975368;28;19933;-59
2022/05/07 09:40:22;;;;;;;;;;;;;;;18.80;40.71;98538.75;4977325;28;19934;-59
2022/05/07 09:42:49;;;;;;;;;;;;;;;18.80;40.33;98536.00;4976092;28;20433;-59
2022/05/07 09:45:18;;;;;;;;;;;;;;;18.78;40.49;98532.78;4975121;28;20426;-60
2022/05/07 09:47:45;;;;;;;;;;;;;;;18.90;40.47;98525.63;4975173;28;19937;-60
2022/05/07 09:50:24;;;;;;;;;;;;;;;18.61;39.78;98526.75;4975554;28;20045;-60
2022/05/07 09:58:24;;;;;;;;;;;;;;;18.85;37.33;98523.91;4976428;28;20398;-60
2022/05/07 10:01:03;;;;;;;;;;;;;;;18.75;37.90;98522.50;4974028;28;19926;-56
2022/05/07 10:03:35;;;;;;;;;;;;;;;18.48;38.38;98531.47;4976228;28;19932;-60
2022/05/07 10:06:32;;;;;;;;;;;;;;;18.72;38.73;98525.13;4977551;28;19937;-59
2022/05/07 10:09:07;;;;;;;;;;;;;;;18.60;39.65;98523.19;4976842;28;20354;-59
2022/05/07 10:11:59;;;;;;;;;;;;;;;18.51;38.82;98519.78;4976050;28;19955;-60
2022/05/07 10:14:27;;;;;;;;;;;;;;;18.52;38.54;98516.69;4982688;28;19988;-59
2022/05/07 10:16:57;;;;;;;;;;;;;;;18.54;38.25;98508.91;4974952;28;19926;-59
2022/05/07 10:19:34;;;;;;;;;;;;;;;18.68;38.67;98516.78;4979700;28;19930;-59
2022/05/07 10:22:02;;;;;;;;;;;;;;;18.84;37.28;98512.09;4972527;28;20436;-60
2022/05/07 10:24:31;;;;;;;;;;;;;;;18.91;37.56;98508.78;4972584;28;19989;-59
2022/05/07 10:26:59;;;;;;;;;;;;;;;19.14;38.75;98509.00;4975953;28;19961;-60
2022/05/07 10:29:29;;;;;;;;;;;;;;;19.13;37.73;98512.09;4977409;28;20405;-60
2022/05/07 10:32:03;;;;;;;;;;;;;;;19.17;38.10;98507.47;4977551;28;20025;-59
2022/05/07 10:34:31;;;;;;;;;;;;;;;19.13;36.09;98507.41;4977662;28;19934;-60
2022/05/07 10:37:01;;;;;;;;;;;;;;;19.03;36.42;98503.19;4975885;28;19981;-61
2022/05/07 10:39:31;;;;;;;;;;;;;;;19.21;36.25;98497.34;4980766;28;20314;-59
2022/05/07 10:41:59;;;;;;;;;;;;;;;19.36;36.03;98497.38;4971573;28;19973;-59
2022/05/07 10:44:30;;;;;;;;;;;;;;;19.24;36.02;98491.94;4975625;28;19949;-59
2022/05/07 10:47:08;;;;;;;;;;;;;;;19.05;36.77;98497.31;4975012;28;19941;-59
2022/05/07 10:49:36;;;;;;;;;;;;;;;19.16;37.02;98495.66;4975560;28;19930;-59
2022/05/07 10:52:04;;;;;;;;;;;;;;;19.04;36.40;98496.53;4971512;28;20307;-60
2022/05/07 10:54:33;;;;;;;;;;;;;;;18.97;36.58;98492.78;4976344;28;19939;-59
2022/05/07 10:57:01;;;;;;;;;;;;;;;18.99;36.59;98485.78;4977535;28;20019;-59
2022/05/07 10:59:29;;;;;;;;;;;;;;;19.24;35.69;98497.44;4977843;28;19925;-60
2022/05/07 11:02:04;;;;;;;;;;;;;;;19.38;36.24;98484.03;4972458;28;20012;-60
2022/05/07 11:04:33;;;;;;;;;;;;;;;19.36;35.54;98477.28;4979218;28;19934;-59
2022/05/07 11:07:01;;;;;;;;;;;;;;;19.38;35.00;98475.75;4977564;28;20025;-58
2022/05/07 11:09:29;;;;;;;;;;;;;;;19.56;35.16;98475.41;4973882;28;19973;-60
2022/05/07 11:11:58;;;;;;;;;;;;;;;19.73;35.70;98468.75;4972644;28;19926;-60
2022/05/07 11:14:27;;;;;;;;;;;;;;;19.83;35.41;98474.50;4973387;28;19926;-60
2022/05/07 11:16:56;;;;;;;;;;;;;;;19.94;35.73;98472.00;4975329;28;19940;-57
2022/05/07 11:19:25;;;;;;;;;;;;;;;20.14;34.58;98473.66;4964811;28;19934;-59
2022/05/07 11:21:53;;;;;;;;;;;;;;;19.89;34.33;98475.84;4976561;28;20378;-59
2022/05/07 11:24:21;;;;;;;;;;;;;;;19.70;34.48;98464.75;4970403;28;19926;-60
2022/05/07 11:26:51;;;;;;;;;;;;;;;19.74;35.00;98464.84;4980347;28;19925;-60
2022/05/07 11:29:20;;;;;;;;;;;;;;;19.65;34.68;98465.00;4980210;28;19927;-60
2022/05/07 11:31:54;;;;;;;;;;;;;;;19.56;35.31;98467.16;4978151;28;19988;-59
2022/05/07 11:34:29;;;;;;;;;;;;;;;19.51;34.71;98468.22;4993649;28;20034;-60
2022/05/07 11:36:56;;;;;;;;;;;;;;;19.49;35.49;98461.44;4978696;28;20036;-60
2022/05/07 11:39:24;;;;;;;;;;;;;;;19.65;34.30;98456.75;4975777;28;19937;-60
2022/05/07 11:41:55;;;;;;;;;;;;;;;19.88;33.94;98457.69;4974070;28;19930;-59
2022/05/07 11:47:20;;;;;;;;;;;;;;;20.33;33.64;98448.00;4976701;28;19926;-60
2022/05/07 11:49:57;;;;;;;;;;;;;;;20.54;33.67;98447.69;4984216;28;19926;-61
2022/05/07 11:52:28;;;;;;;;;;;;;;;20.60;32.85;98454.50;4979164;28;19926;-60
2022/05/07 11:54:57;;;;;;;;;;;;;;;20.39;33.01;98452.06;4980923;28;19968;-61
2022/05/07 11:57:28;;;;;;;;;;;;;;;20.56;33.38;98455.59;4982292;28;19934;-61
2022/05/07 11:59:58;;;;;;;;;;;;;;;20.47;33.47;98452.28;4978133;28;20024;-59
2022/05/07 12:02:30;;;;;;;;;;;;;;;20.34;33.22;98449.59;4980176;28;19937;-60
2022/05/07 12:05:00;;;;;;;;;;;;;;;20.00;33.10;98444.94;4976467;28;19926;-60
2022/05/07 12:07:52;;;;;;;;;;;;;;;20.15;33.44;98444.88;4979547;28;19927;-60
2022/05/07 12:10:21;;;;;;;;;;;;;;;20.21;33.42;98437.13;4977159;28;19933;-59
2022/05/07 12:12:50;;;;;;;;;;;;;;;20.28;33.46;98434.50;4982675;28;19981;-59
2022/05/07 12:17:52;;;;;;;;;;;;;;;20.24;32.60;98444.69;4983251;28;19926;-61
2022/05/07 12:18:31;;;;;;;;;;;;;;;20.05;32.57;98439.94;4974312;28;20029;-60
2022/05/07 12:21:00;;;;;;;;;;;;;;;20.18;33.02;98439.81;4986501;28;19969;-60
2022/05/07 12:31:52;;;;;;;;;;;;;;;20.31;33.11;98444.03;4980516;28;19926;-60
2022/05/07 12:34:21;;;;;;;;;;;;;;;20.16;32.90;98440.16;4976937;28;20398;-60
2022/05/07 12:36:49;;;;;;;;;;;;;;;20.25;33.37;98438.00;4981477;28;19988;-60
2022/05/07 12:39:17;;;;;;;;;;;;;;;20.21;32.82;98434.38;4980425;28;20318;-59
2022/05/07 12:41:45;;;;;;;;;;;;;;;20.28;33.02;98428.19;4974090;28;19926;-61
2022/05/07 12:44:14;;;;;;;;;;;;;;;20.19;32.57;98424.84;4977841;28;19933;-59
2022/05/07 12:46:45;;;;;;;;;;;;;;;20.29;33.54;98418.75;4978474;28;19989;-60
2022/05/07 12:49:15;;;;;;;;;;;;;;;20.37;33.18;98426.81;4975618;28;19926;-60
2022/05/07 12:51:43;;;;;;;;;;;;;;;20.38;31.64;98417.38;4974750;28;19933;-60
2022/05/07 12:54:13;;;;;;;;;;;;;;;20.38;31.41;98414.59;4980162;28;20394;-60
2022/05/07 12:56:42;;;;;;;;;;;;;;;20.42;32.61;98412.72;4979309;28;20038;-60
2022/05/07 12:59:10;;;;;;;;;;;;;;;20.54;32.07;98419.28;4981859;28;19965;-61
2022/05/07 13:01:38;;;;;;;;;;;;;;;20.60;31.66;98415.06;4980641;28;19941;-60
2022/05/07 13:04:06;;;;;;;;;;;;;;;20.57;31.27;98402.00;4972489;28;19949;-60
2022/05/07 13:06:36;;;;;;;;;;;;;;;20.57;31.70;98413.03;4977174;28;19930;-60
2022/05/07 13:09:03;;;;;;;;;;;;;;;20.48;31.75;98412.47;4976679;28;19977;-61
2022/05/07 13:11:31;;;;;;;;;;;;;;;20.67;32.28;98409.69;4978090;28;20025;-60
2022/05/07 13:13:59;;;;;;;;;;;;;;;20.55;33.41;98407.88;4976580;28;20363;-61
2022/05/07 13:16:27;;;;;;;;;;;;;;;20.72;32.65;98398.34;4982272;28;19996;-60
2022/05/07 13:18:55;;;;;;;;;;;;;;;20.69;31.66;98399.06;4981002;28;20480;-61
2022/05/07 13:21:23;;;;;;;;;;;;;;;20.90;32.07;98399.44;4980551;28;19929;-59
2022/05/07 13:23:55;;;;;;;;;;;;;;;20.93;31.45;98389.63;4980775;28;19976;-61
2022/05/07 13:26:23;;;;;;;;;;;;;;;21.01;32.04;98393.31;4975336;28;20367;-59
2022/05/07 13:29:12;;;;;;;;;;;;;;;20.85;31.68;98394.22;4980743;28;20245;-60
2022/05/07 13:31:42;;;;;;;;;;;;;;;20.99;31.57;98392.91;4982305;28;20245;-60
2022/05/07 13:34:11;;;;;;;;;;;;;;;21.07;31.69;98392.63;4978732;28;19944;-61
2022/05/07 13:36:38;;;;;;;;;;;;;;;21.08;31.77;98391.47;4979796;28;20348;-60
2022/05/07 13:39:07;;;;;;;;;;;;;;;21.10;31.36;98391.13;4979049;28;20404;-60
2022/05/07 13:41:35;;;;;;;;;;;;;;;20.98;33.09;98389.31;4980867;28;20294;-60
2022/05/07 13:44:07;;;;;;;;;;;;;;;21.12;31.89;98388.78;4975472;28;19926;-61
2022/05/07 13:46:36;;;;;;;;;;;;;;;21.02;31.90;98378.34;4980654;28;19934;-61
2022/05/07 13:49:03;;;;;;;;;;;;;;;20.70;31.83;98380.53;4973549;28;19934;-60